createdAt,value
2022-11-24T00:00:17.472Z,91.84
2022-11-24T00:01:17.485Z,91.84
2022-11-24T00:02:17.592Z,91.83
2022-11-24T00:03:17.533Z,91.83
2022-11-24T00:04:17.425Z,91.82
2022-11-24T00:05:17.405Z,91.79
2022-11-24T00:06:17.391Z,91.79
2022-11-24T00:07:17.509Z,91.81
2022-11-24T00:08:17.389Z,91.81
2022-11-24T00:09:17.360Z,91.80
2022-11-24T00:10:17.341Z,91.77
2022-11-24T00:11:17.376Z,91.77
2022-11-24T00:12:17.344Z,91.74
2022-11-24T00:13:17.307Z,91.66
2022-11-24T00:14:17.297Z,91.66
2022-11-24T00:15:17.295Z,91.71
2022-11-24T00:16:17.317Z,91.70
2022-11-24T00:17:17.290Z,91.68
2022-11-24T00:18:17.253Z,91.71
2022-11-24T00:19:19.967Z,91.69
2022-11-24T00:20:17.249Z,91.78
2022-11-24T00:21:17.236Z,91.80
2022-11-24T00:22:17.291Z,91.73
2022-11-24T00:23:17.205Z,91.74
2022-11-24T00:24:17.184Z,91.74
2022-11-24T00:25:17.179Z,91.73
2022-11-24T00:26:17.166Z,91.74
2022-11-24T00:27:17.142Z,91.72
2022-11-24T00:28:17.159Z,91.74
2022-11-24T00:29:17.133Z,91.71
2022-11-24T00:30:17.116Z,91.71
2022-11-24T00:31:17.742Z,91.71
2022-11-24T00:32:17.177Z,91.70
2022-11-24T00:33:17.090Z,91.71
2022-11-24T00:34:17.114Z,91.72
2022-11-24T00:35:17.061Z,91.71
2022-11-24T00:36:17.044Z,91.70
2022-11-24T00:37:17.059Z,91.70
2022-11-24T00:38:17.018Z,91.74
2022-11-24T00:39:17.029Z,91.84
2022-11-24T00:40:16.994Z,91.82
2022-11-24T00:41:16.998Z,91.80
2022-11-24T00:42:16.982Z,91.82
2022-11-24T00:43:16.970Z,91.82
2022-11-24T00:44:16.996Z,91.85
2022-11-24T00:45:16.950Z,91.85
2022-11-24T00:46:17.004Z,91.83
2022-11-24T00:47:17.000Z,91.81
2022-11-24T00:48:16.931Z,91.78
2022-11-24T00:49:16.932Z,91.76
2022-11-24T00:50:16.914Z,91.73
2022-11-24T00:51:16.927Z,91.68
2022-11-24T00:52:16.865Z,91.69
2022-11-24T00:53:16.853Z,91.65
2022-11-24T00:54:16.854Z,91.64
2022-11-24T00:55:16.827Z,91.65
2022-11-24T00:56:16.814Z,91.65
2022-11-24T00:57:16.808Z,91.63
2022-11-24T00:58:16.794Z,91.60
2022-11-24T00:59:16.787Z,91.58
2022-11-24T01:00:16.794Z,91.66
2022-11-24T01:01:16.836Z,91.69
2022-11-24T01:02:16.787Z,91.75
2022-11-24T01:03:16.739Z,91.76
2022-11-24T01:04:16.759Z,91.72
2022-11-24T01:05:16.729Z,91.64
2022-11-24T01:06:16.720Z,91.63
2022-11-24T01:07:16.781Z,91.64
2022-11-24T01:08:16.710Z,91.61
2022-11-24T01:09:16.709Z,91.52
2022-11-24T01:10:16.678Z,91.49
2022-11-24T01:11:16.669Z,91.46
2022-11-24T01:12:16.639Z,91.45
2022-11-24T01:13:16.671Z,91.47
2022-11-24T01:14:16.609Z,91.43
2022-11-24T01:15:16.637Z,91.34
2022-11-24T01:16:16.637Z,91.24
2022-11-24T01:17:16.607Z,91.13
2022-11-24T01:18:16.571Z,91.07
2022-11-24T01:19:16.548Z,91.08
2022-11-24T01:20:16.535Z,91.11
2022-11-24T01:21:16.531Z,91.12
2022-11-24T01:22:16.525Z,91.16
2022-11-24T01:23:16.532Z,91.20
2022-11-24T01:24:16.495Z,91.22
2022-11-24T01:25:16.482Z,91.19
2022-11-24T01:26:16.493Z,91.17
2022-11-24T01:27:16.453Z,91.11
2022-11-24T01:28:16.439Z,91.06
2022-11-24T01:29:16.441Z,91.02
2022-11-24T01:30:16.434Z,91.01
2022-11-24T01:31:16.520Z,90.99
2022-11-24T01:32:16.401Z,90.99
2022-11-24T01:33:16.392Z,90.97
2022-11-24T01:34:16.371Z,90.92
2022-11-24T01:35:16.367Z,90.89
2022-11-24T01:36:16.373Z,90.83
2022-11-24T01:37:16.329Z,90.84
2022-11-24T01:38:16.323Z,90.81
2022-11-24T01:39:16.331Z,90.80
2022-11-24T01:40:16.292Z,90.80
2022-11-24T01:41:16.284Z,90.75
2022-11-24T01:42:16.297Z,90.66
2022-11-24T01:43:16.285Z,90.62
2022-11-24T01:44:16.262Z,90.69
2022-11-24T01:45:16.240Z,90.65
2022-11-24T01:46:16.427Z,90.56
2022-11-24T01:47:16.222Z,90.53
2022-11-24T01:48:16.215Z,90.51
2022-11-24T01:49:16.202Z,90.50
2022-11-24T01:50:16.180Z,90.45
2022-11-24T01:51:16.168Z,90.37
2022-11-24T01:52:16.157Z,90.35
2022-11-24T01:53:16.160Z,90.40
2022-11-24T01:54:16.277Z,90.39
2022-11-24T01:55:16.134Z,90.39
2022-11-24T01:56:16.109Z,90.36
2022-11-24T01:57:16.145Z,90.36
2022-11-24T01:58:16.120Z,90.37
2022-11-24T01:59:16.082Z,90.38
2022-11-24T02:00:16.067Z,90.39
2022-11-24T02:01:16.248Z,90.45
2022-11-24T02:02:16.105Z,90.48
2022-11-24T02:03:16.020Z,90.52
2022-11-24T02:04:16.026Z,90.55
2022-11-24T02:05:16.028Z,90.57
2022-11-24T02:06:15.998Z,90.56
2022-11-24T02:07:16.032Z,90.58
2022-11-24T02:08:15.972Z,90.56
2022-11-24T02:09:15.969Z,90.60
2022-11-24T02:10:15.944Z,90.61
2022-11-24T02:11:15.946Z,90.64
2022-11-24T02:12:15.914Z,90.64
2022-11-24T02:13:15.909Z,90.63
2022-11-24T02:14:15.912Z,90.63
2022-11-24T02:15:15.891Z,90.62
2022-11-24T02:16:15.912Z,90.54
2022-11-24T02:17:15.868Z,90.47
2022-11-24T02:18:15.870Z,90.50
2022-11-24T02:19:15.851Z,90.55
2022-11-24T02:20:15.821Z,90.59
2022-11-24T02:21:15.824Z,90.53
2022-11-24T02:22:15.810Z,90.45
2022-11-24T02:23:15.777Z,90.43
2022-11-24T02:24:15.791Z,90.41
2022-11-24T02:25:15.776Z,90.39
2022-11-24T02:26:15.751Z,90.39
2022-11-24T02:27:15.737Z,90.36
2022-11-24T02:28:15.742Z,90.35
2022-11-24T02:29:15.752Z,90.40
2022-11-24T02:30:15.730Z,90.37
2022-11-24T02:31:15.755Z,90.39
2022-11-24T02:32:15.697Z,90.41
2022-11-24T02:33:15.696Z,90.41
2022-11-24T02:34:15.692Z,90.43
2022-11-24T02:35:15.658Z,90.44
2022-11-24T02:36:15.642Z,90.48
2022-11-24T02:37:15.633Z,90.47
2022-11-24T02:38:15.616Z,90.50
2022-11-24T02:39:15.630Z,90.51
2022-11-24T02:40:15.589Z,90.49
2022-11-24T02:41:15.597Z,90.44
2022-11-24T02:42:15.565Z,90.42
2022-11-24T02:43:15.564Z,90.41
2022-11-24T02:44:15.587Z,90.41
2022-11-24T02:45:15.546Z,90.41
2022-11-24T02:46:15.572Z,90.33
2022-11-24T02:47:15.515Z,90.28
2022-11-24T02:48:15.501Z,90.18
2022-11-24T02:49:15.513Z,90.03
2022-11-24T02:50:15.470Z,89.92
2022-11-24T02:51:15.494Z,89.87
2022-11-24T02:52:15.458Z,89.72
2022-11-24T02:53:15.436Z,89.66
2022-11-24T02:54:15.461Z,89.54
2022-11-24T02:55:15.427Z,89.47
2022-11-24T02:56:15.420Z,89.47
2022-11-24T02:57:15.403Z,89.48
2022-11-24T02:58:15.412Z,89.39
2022-11-24T02:59:15.370Z,89.14
2022-11-24T03:00:15.380Z,88.89
2022-11-24T03:01:15.424Z,88.77
2022-11-24T03:02:15.415Z,88.71
2022-11-24T03:03:15.401Z,88.65
2022-11-24T03:04:15.364Z,88.66
2022-11-24T03:05:15.311Z,88.73
2022-11-24T03:06:15.295Z,88.70
2022-11-24T03:07:15.376Z,88.72
2022-11-24T03:08:15.265Z,88.66
2022-11-24T03:09:15.250Z,88.57
2022-11-24T03:10:15.241Z,88.52
2022-11-24T03:11:15.254Z,88.54
2022-11-24T03:12:15.226Z,88.53
2022-11-24T03:13:15.221Z,88.51
2022-11-24T03:14:15.192Z,88.52
2022-11-24T03:15:15.179Z,88.51
2022-11-24T03:16:15.213Z,88.55
2022-11-24T03:17:15.184Z,88.56
2022-11-24T03:18:15.154Z,88.57
2022-11-24T03:19:15.137Z,88.56
2022-11-24T03:20:15.136Z,88.59
2022-11-24T03:21:15.115Z,88.60
2022-11-24T03:22:15.118Z,88.61
2022-11-24T03:23:15.106Z,88.67
2022-11-24T03:24:15.096Z,88.68
2022-11-24T03:25:15.075Z,88.67
2022-11-24T03:26:15.052Z,88.62
2022-11-24T03:27:15.054Z,88.54
2022-11-24T03:28:15.089Z,88.49
2022-11-24T03:29:15.031Z,88.46
2022-11-24T03:30:15.027Z,88.46
2022-11-24T03:31:15.104Z,88.39
2022-11-24T03:32:14.987Z,88.33
2022-11-24T03:33:14.966Z,88.29
2022-11-24T03:34:14.979Z,88.27
2022-11-24T03:35:14.960Z,88.27
2022-11-24T03:36:14.940Z,88.22
2022-11-24T03:37:14.923Z,88.21
2022-11-24T03:38:14.917Z,88.15
2022-11-24T03:39:14.921Z,88.19
2022-11-24T03:40:14.900Z,88.20
2022-11-24T03:41:14.900Z,88.22
2022-11-24T03:42:14.887Z,88.20
2022-11-24T03:43:14.876Z,88.13
2022-11-24T03:44:14.855Z,88.07
2022-11-24T03:45:45.559Z,87.95
2022-11-24T03:46:15.900Z,87.91
2022-11-24T03:47:14.815Z,87.89
2022-11-24T03:48:14.800Z,87.82
2022-11-24T03:49:14.795Z,87.81
2022-11-24T03:50:14.778Z,87.76
2022-11-24T03:51:14.769Z,87.69
2022-11-24T03:52:14.770Z,87.66
2022-11-24T03:53:14.741Z,87.62
2022-11-24T03:54:14.736Z,87.60
2022-11-24T03:55:14.725Z,87.54
2022-11-24T03:56:14.721Z,87.41
2022-11-24T03:57:14.699Z,87.28
2022-11-24T03:58:14.686Z,87.17
2022-11-24T03:59:14.700Z,87.13
2022-11-24T04:00:14.669Z,87.12
2022-11-24T04:01:14.693Z,87.09
2022-11-24T04:02:14.658Z,87.03
2022-11-24T04:03:14.675Z,87.02
2022-11-24T04:04:14.623Z,86.99
2022-11-24T04:05:14.593Z,87.04
2022-11-24T04:06:14.650Z,87.10
2022-11-24T04:07:14.610Z,87.09
2022-11-24T04:08:14.569Z,87.13
2022-11-24T04:09:14.576Z,87.12
2022-11-24T04:10:14.556Z,87.15
2022-11-24T04:11:14.551Z,87.19
2022-11-24T04:12:14.526Z,87.24
2022-11-24T04:13:14.530Z,87.42
2022-11-24T04:14:14.491Z,87.38
2022-11-24T04:15:14.492Z,87.14
2022-11-24T04:16:14.538Z,86.78
2022-11-24T04:17:14.466Z,86.49
2022-11-24T04:18:14.450Z,86.08
2022-11-24T04:19:14.456Z,85.92
2022-11-24T04:20:14.422Z,85.74
2022-11-24T04:21:14.454Z,85.62
2022-11-24T04:22:14.411Z,85.59
2022-11-24T04:23:14.394Z,85.50
2022-11-24T04:24:14.378Z,85.39
2022-11-24T04:25:14.419Z,85.32
2022-11-24T04:26:14.380Z,85.29
2022-11-24T04:27:14.339Z,85.18
2022-11-24T04:28:14.343Z,85.06
2022-11-24T04:29:14.319Z,84.97
2022-11-24T04:30:14.331Z,85.01
2022-11-24T04:31:14.392Z,85.01
2022-11-24T04:32:14.311Z,85.00
2022-11-24T04:33:14.286Z,85.04
2022-11-24T04:34:14.265Z,85.05
2022-11-24T04:35:14.273Z,85.05
2022-11-24T04:36:14.262Z,85.05
2022-11-24T04:37:14.240Z,85.09
2022-11-24T04:38:14.221Z,85.13
2022-11-24T04:39:22.852Z,85.12
2022-11-24T04:40:15.202Z,85.16
2022-11-24T04:41:14.188Z,85.21
2022-11-24T04:42:14.223Z,85.20
2022-11-24T04:43:14.159Z,85.08
2022-11-24T04:44:14.154Z,85.04
2022-11-24T04:45:14.154Z,84.99
2022-11-24T04:46:14.240Z,84.92
2022-11-24T04:47:14.126Z,84.95
2022-11-24T04:48:14.149Z,84.94
2022-11-24T04:49:14.099Z,84.70
2022-11-24T04:50:14.074Z,84.60
2022-11-24T04:51:14.061Z,84.62
2022-11-24T04:52:14.070Z,84.63
2022-11-24T04:53:14.060Z,84.68
2022-11-24T04:54:14.027Z,84.71
2022-11-24T04:55:14.012Z,84.69
2022-11-24T04:56:14.016Z,84.78
2022-11-24T04:57:13.987Z,84.80
2022-11-24T04:58:14.024Z,84.98
2022-11-24T04:59:14.033Z,85.07
2022-11-24T05:00:13.972Z,85.07
2022-11-24T05:01:14.009Z,84.99
2022-11-24T05:02:13.991Z,84.92
2022-11-24T05:03:13.941Z,84.92
2022-11-24T05:04:13.962Z,85.08
2022-11-24T05:05:13.904Z,85.17
2022-11-24T05:06:13.891Z,85.24
2022-11-24T05:07:18.450Z,85.29
2022-11-24T05:08:14.898Z,85.26
2022-11-24T05:09:13.856Z,85.19
2022-11-24T05:10:13.861Z,85.22
2022-11-24T05:11:13.850Z,85.17
2022-11-24T05:12:13.823Z,85.14
2022-11-24T05:13:13.810Z,85.20
2022-11-24T05:14:13.851Z,85.30
2022-11-24T05:15:13.793Z,85.23
2022-11-24T05:16:13.861Z,85.07
2022-11-24T05:17:13.765Z,85.07
2022-11-24T05:18:13.765Z,85.06
2022-11-24T05:19:13.743Z,85.01
2022-11-24T05:20:13.765Z,85.06
2022-11-24T05:21:13.746Z,85.09
2022-11-24T05:22:13.721Z,85.08
2022-11-24T05:23:13.689Z,85.01
2022-11-24T05:24:13.702Z,85.00
2022-11-24T05:25:13.678Z,85.00
2022-11-24T05:26:13.679Z,84.99
2022-11-24T05:27:13.656Z,84.98
2022-11-24T05:28:13.668Z,84.97
2022-11-24T05:29:13.624Z,85.01
2022-11-24T05:30:13.622Z,85.11
2022-11-24T05:31:13.638Z,85.20
2022-11-24T05:32:13.608Z,85.17
2022-11-24T05:33:13.573Z,85.18
2022-11-24T05:34:13.578Z,85.12
2022-11-24T05:35:13.553Z,85.06
2022-11-24T05:36:13.552Z,84.97
2022-11-24T05:37:13.560Z,84.99
2022-11-24T05:38:13.551Z,85.07
2022-11-24T05:39:13.503Z,85.17
2022-11-24T05:40:13.597Z,85.25
2022-11-24T05:41:13.502Z,85.31
2022-11-24T05:42:13.533Z,85.33
2022-11-24T05:43:13.483Z,85.28
2022-11-24T05:44:13.501Z,85.25
2022-11-24T05:45:13.431Z,85.24
2022-11-24T05:46:13.494Z,85.23
2022-11-24T05:47:13.414Z,85.22
2022-11-24T05:48:13.440Z,85.13
2022-11-24T05:49:13.394Z,85.15
2022-11-24T05:50:13.404Z,85.13
2022-11-24T05:51:13.364Z,85.11
2022-11-24T05:52:13.362Z,85.12
2022-11-24T05:53:13.376Z,85.01
2022-11-24T05:54:13.353Z,84.93
2022-11-24T05:55:13.321Z,84.86
2022-11-24T05:56:13.313Z,84.80
2022-11-24T05:57:13.299Z,84.79
2022-11-24T05:58:13.292Z,84.85
2022-11-24T05:59:13.281Z,84.95
2022-11-24T06:00:13.298Z,85.12
2022-11-24T06:01:13.250Z,85.21
2022-11-24T06:02:13.363Z,85.34
2022-11-24T06:03:13.300Z,85.41
2022-11-24T06:04:13.233Z,85.43
2022-11-24T06:05:13.213Z,85.45
2022-11-24T06:06:13.219Z,85.48
2022-11-24T06:07:13.212Z,85.62
2022-11-24T06:08:13.187Z,85.89
2022-11-24T06:09:13.158Z,85.95
2022-11-24T06:10:13.183Z,86.09
2022-11-24T06:11:13.128Z,86.03
2022-11-24T06:12:13.138Z,86.03
2022-11-24T06:13:13.159Z,85.96
2022-11-24T06:14:13.115Z,85.70
2022-11-24T06:15:13.075Z,85.64
2022-11-24T06:16:13.185Z,85.92
2022-11-24T06:17:13.055Z,86.09
2022-11-24T06:18:13.063Z,86.13
2022-11-24T06:19:13.048Z,86.29
2022-11-24T06:20:13.045Z,86.37
2022-11-24T06:21:13.023Z,86.60
2022-11-24T06:22:13.045Z,86.74
2022-11-24T06:23:12.986Z,86.76
2022-11-24T06:24:13.004Z,86.75
2022-11-24T06:25:12.983Z,86.89
2022-11-24T06:26:12.994Z,86.98
2022-11-24T06:27:12.962Z,87.00
2022-11-24T06:28:12.956Z,87.05
2022-11-24T06:29:12.931Z,87.07
2022-11-24T06:30:12.927Z,87.09
2022-11-24T06:31:12.958Z,87.09
2022-11-24T06:32:12.932Z,87.13
2022-11-24T06:33:12.867Z,87.15
2022-11-24T06:34:12.891Z,87.20
2022-11-24T06:35:12.862Z,87.27
2022-11-24T06:36:12.871Z,87.32
2022-11-24T06:37:12.841Z,87.41
2022-11-24T06:38:12.850Z,87.44
2022-11-24T06:39:12.832Z,87.44
2022-11-24T06:40:12.808Z,87.46
2022-11-24T06:41:12.783Z,87.51
2022-11-24T06:42:12.878Z,87.52
2022-11-24T06:43:12.760Z,87.56
2022-11-24T06:44:12.772Z,87.57
2022-11-24T06:45:12.744Z,87.64
2022-11-24T06:46:12.809Z,87.87
2022-11-24T06:47:12.729Z,87.96
2022-11-24T06:48:12.730Z,88.04
2022-11-24T06:49:12.707Z,88.18
2022-11-24T06:50:12.696Z,88.30
2022-11-24T06:51:12.673Z,88.31
2022-11-24T06:52:12.714Z,88.34
2022-11-24T06:53:12.660Z,88.29
2022-11-24T06:54:12.653Z,88.27
2022-11-24T06:55:12.639Z,88.33
2022-11-24T06:56:16.125Z,88.44
2022-11-24T06:57:12.601Z,88.52
2022-11-24T06:58:12.602Z,88.62
2022-11-24T06:59:12.640Z,88.65
2022-11-24T07:00:12.585Z,88.67
2022-11-24T07:01:12.619Z,88.75
2022-11-24T07:02:12.685Z,88.76
2022-11-24T07:03:12.634Z,88.82
2022-11-24T07:04:12.541Z,88.98
2022-11-24T07:05:12.513Z,89.00
2022-11-24T07:06:12.511Z,89.03
2022-11-24T07:07:12.610Z,89.07
2022-11-24T07:08:17.569Z,89.11
2022-11-24T07:09:13.467Z,89.11
2022-11-24T07:10:12.461Z,89.10
2022-11-24T07:11:12.435Z,89.09
2022-11-24T07:12:12.540Z,89.09
2022-11-24T07:13:12.407Z,89.12
2022-11-24T07:14:12.421Z,89.13
2022-11-24T07:15:12.411Z,89.13
2022-11-24T07:16:12.438Z,89.17
2022-11-24T07:17:12.365Z,89.22
2022-11-24T07:18:12.395Z,89.30
2022-11-24T07:19:12.341Z,89.30
2022-11-24T07:20:12.352Z,89.34
2022-11-24T07:21:12.341Z,89.35
2022-11-24T07:22:12.418Z,89.39
2022-11-24T07:23:12.298Z,89.43
2022-11-24T07:24:12.300Z,89.50
2022-11-24T07:25:12.270Z,89.51
2022-11-24T07:26:12.269Z,89.50
2022-11-24T07:27:12.271Z,89.50
2022-11-24T07:28:12.273Z,89.51
2022-11-24T07:29:12.219Z,89.48
2022-11-24T07:30:12.252Z,89.47
2022-11-24T07:31:12.449Z,89.50
2022-11-24T07:32:12.263Z,89.51
2022-11-24T07:33:12.175Z,89.53
2022-11-24T07:34:12.183Z,89.53
2022-11-24T07:35:12.157Z,89.54
2022-11-24T07:36:12.172Z,89.56
2022-11-24T07:37:12.152Z,89.64
2022-11-24T07:38:12.129Z,89.62
2022-11-24T07:39:12.117Z,89.61
2022-11-24T07:40:12.119Z,89.67
2022-11-24T07:41:12.126Z,89.72
2022-11-24T07:42:12.136Z,89.74
2022-11-24T07:43:17.138Z,89.70
2022-11-24T07:44:13.063Z,89.68
2022-11-24T07:45:12.050Z,89.67
2022-11-24T07:46:12.074Z,89.65
2022-11-24T07:47:12.039Z,89.68
2022-11-24T07:48:12.019Z,89.70
2022-11-24T07:49:12.034Z,89.73
2022-11-24T07:50:12.018Z,89.74
2022-11-24T07:51:12.014Z,89.77
2022-11-24T07:52:11.986Z,89.73
2022-11-24T07:53:11.965Z,89.67
2022-11-24T07:54:11.945Z,89.61
2022-11-24T07:55:11.919Z,89.58
2022-11-24T07:56:11.942Z,89.58
2022-11-24T07:57:11.934Z,89.52
2022-11-24T07:58:11.919Z,89.55
2022-11-24T07:59:11.884Z,89.60
2022-11-24T08:00:11.888Z,89.64
2022-11-24T08:01:11.990Z,89.66
2022-11-24T08:02:11.909Z,89.61
2022-11-24T08:03:11.869Z,89.57
2022-11-24T08:04:11.960Z,89.54
2022-11-24T08:05:11.821Z,89.55
2022-11-24T08:06:32.289Z,89.56
2022-11-24T08:07:12.838Z,89.60
2022-11-24T08:08:11.788Z,89.70
2022-11-24T08:09:11.779Z,89.77
2022-11-24T08:10:11.764Z,89.78
2022-11-24T08:11:11.751Z,89.82
2022-11-24T08:12:11.739Z,89.83
2022-11-24T08:13:11.714Z,89.86
2022-11-24T08:14:11.732Z,89.88
2022-11-24T08:15:11.865Z,89.86
2022-11-24T08:16:11.726Z,89.84
2022-11-24T08:17:11.719Z,89.81
2022-11-24T08:18:11.683Z,89.75
2022-11-24T08:19:11.685Z,89.78
2022-11-24T08:20:11.669Z,89.68
2022-11-24T08:21:11.628Z,89.68
2022-11-24T08:22:11.626Z,89.66
2022-11-24T08:23:11.604Z,89.56
2022-11-24T08:24:11.642Z,89.44
2022-11-24T08:25:11.606Z,89.26
2022-11-24T08:26:11.585Z,89.17
2022-11-24T08:27:11.554Z,89.14
2022-11-24T08:28:11.582Z,89.13
2022-11-24T08:29:11.523Z,89.12
2022-11-24T08:30:11.538Z,89.11
2022-11-24T08:31:11.524Z,89.08
2022-11-24T08:32:11.740Z,89.10
2022-11-24T08:33:11.505Z,89.10
2022-11-24T08:34:11.485Z,88.97
2022-11-24T08:35:14.768Z,88.66
2022-11-24T08:36:11.452Z,88.38
2022-11-24T08:37:11.444Z,88.16
2022-11-24T08:38:11.431Z,87.88
2022-11-24T08:39:11.413Z,87.63
2022-11-24T08:40:11.436Z,87.46
2022-11-24T08:41:11.382Z,86.98
2022-11-24T08:42:11.383Z,86.36
2022-11-24T08:43:11.394Z,85.83
2022-11-24T08:44:11.350Z,85.37
2022-11-24T08:45:20.288Z,84.66
2022-11-24T08:46:12.391Z,84.12
2022-11-24T08:47:11.326Z,83.38
2022-11-24T08:48:11.306Z,83.14
2022-11-24T08:49:11.329Z,82.88
2022-11-24T08:50:11.287Z,82.92
2022-11-24T08:51:11.286Z,82.71
2022-11-24T08:52:11.259Z,82.57
2022-11-24T08:53:11.295Z,82.11
2022-11-24T08:54:11.234Z,82.22
2022-11-24T08:55:11.254Z,82.40
2022-11-24T08:56:11.250Z,82.61
2022-11-24T08:57:11.217Z,82.83
2022-11-24T08:58:11.191Z,82.85
2022-11-24T08:59:11.217Z,82.91
2022-11-24T09:00:11.162Z,82.81
2022-11-24T09:01:11.254Z,82.67
2022-11-24T09:02:11.162Z,82.82
2022-11-24T09:03:11.148Z,82.94
2022-11-24T09:04:11.215Z,83.21
2022-11-24T09:05:43.242Z,83.51
2022-11-24T09:06:12.106Z,83.42
2022-11-24T09:07:11.173Z,83.26
2022-11-24T09:08:11.084Z,83.53
2022-11-24T09:09:11.107Z,83.54
2022-11-24T09:10:11.058Z,83.84
2022-11-24T09:11:11.048Z,83.96
2022-11-24T09:12:14.376Z,83.96
2022-11-24T09:13:11.043Z,84.18
2022-11-24T09:14:11.020Z,84.03
2022-11-24T09:15:11.012Z,83.83
2022-11-24T09:16:10.973Z,83.92
2022-11-24T09:17:11.005Z,84.06
2022-11-24T09:18:10.988Z,84.03
2022-11-24T09:19:10.979Z,84.10
2022-11-24T09:20:10.921Z,83.71
2022-11-24T09:21:10.967Z,83.30
2022-11-24T09:22:10.949Z,82.89
2022-11-24T09:23:10.912Z,82.83
2022-11-24T09:24:10.939Z,82.69
2022-11-24T09:25:10.910Z,82.43
2022-11-24T09:26:10.900Z,82.47
2022-11-24T09:27:10.886Z,82.52
2022-11-24T09:28:10.836Z,82.78
2022-11-24T09:29:10.860Z,83.13
2022-11-24T09:30:10.818Z,83.10
2022-11-24T09:31:10.881Z,82.52
2022-11-24T09:32:10.804Z,81.89
2022-11-24T09:33:10.797Z,81.32
2022-11-24T09:34:10.763Z,80.48
2022-11-24T09:35:10.801Z,80.55
2022-11-24T09:36:10.757Z,80.51
2022-11-24T09:37:10.766Z,80.45
2022-11-24T09:38:10.721Z,80.42
2022-11-24T09:39:10.735Z,78.62
2022-11-24T09:40:10.710Z,78.11
2022-11-24T09:41:10.719Z,78.40
2022-11-24T09:42:10.685Z,79.14
2022-11-24T09:43:10.692Z,79.25
2022-11-24T09:44:10.652Z,79.65
2022-11-24T09:45:10.665Z,76.55
2022-11-24T09:46:10.674Z,76.69
2022-11-24T09:47:10.653Z,76.57
2022-11-24T09:48:10.636Z,75.58
2022-11-24T09:49:10.611Z,75.72
2022-11-24T09:50:10.580Z,76.15
2022-11-24T09:51:10.582Z,76.34
2022-11-24T09:52:10.583Z,75.17
2022-11-24T09:53:10.570Z,75.28
2022-11-24T09:54:10.556Z,74.48
2022-11-24T09:55:10.581Z,74.56
2022-11-24T09:56:10.518Z,75.31
2022-11-24T09:57:10.515Z,75.19
2022-11-24T09:58:10.531Z,75.21
2022-11-24T09:59:10.505Z,75.30
2022-11-24T10:00:10.479Z,74.57
2022-11-24T10:01:10.596Z,75.05
2022-11-24T10:02:10.445Z,75.18
2022-11-24T10:03:10.468Z,74.93
2022-11-24T10:04:10.437Z,74.44
2022-11-24T10:05:10.489Z,74.02
2022-11-24T10:06:10.422Z,73.57
2022-11-24T10:07:10.451Z,74.07
2022-11-24T10:08:10.414Z,74.42
2022-11-24T10:09:10.400Z,74.46
2022-11-24T10:10:10.350Z,73.78
2022-11-24T10:11:10.373Z,73.61
2022-11-24T10:12:10.333Z,74.06
2022-11-24T10:13:10.334Z,74.45
2022-11-24T10:14:10.343Z,74.39
2022-11-24T10:15:10.313Z,74.18
2022-11-24T10:16:10.314Z,72.57
2022-11-24T10:17:10.333Z,72.42
2022-11-24T10:18:16.244Z,73.47
2022-11-24T10:19:11.298Z,73.27
2022-11-24T10:20:10.235Z,72.92
2022-11-24T10:21:10.258Z,71.79
2022-11-24T10:22:10.220Z,70.11
2022-11-24T10:23:10.220Z,70.73
2022-11-24T10:24:10.209Z,71.17
2022-11-24T10:25:10.212Z,71.96
2022-11-24T10:26:10.173Z,71.78
2022-11-24T10:27:10.193Z,71.77
2022-11-24T10:28:10.144Z,70.92
2022-11-24T10:29:10.141Z,70.30
2022-11-24T10:30:10.122Z,71.50
2022-11-24T10:31:10.181Z,71.00
2022-11-24T10:32:10.083Z,68.81
2022-11-24T10:33:10.101Z,68.24
2022-11-24T10:34:10.096Z,68.82
2022-11-24T10:35:10.088Z,69.60
2022-11-24T10:36:10.055Z,70.18
2022-11-24T10:37:10.081Z,70.12
2022-11-24T10:38:10.023Z,69.62
2022-11-24T10:39:10.034Z,69.65
2022-11-24T10:40:17.201Z,70.24
2022-11-24T10:41:11.017Z,69.96
2022-11-24T10:42:09.990Z,69.88
2022-11-24T10:43:10.007Z,70.87
2022-11-24T10:44:09.964Z,70.62
2022-11-24T10:45:09.963Z,69.90
2022-11-24T10:46:10.027Z,70.34
2022-11-24T10:47:09.966Z,71.37
2022-11-24T10:48:09.917Z,71.50
2022-11-24T10:49:09.942Z,70.40
2022-11-24T10:50:09.926Z,69.45
2022-11-24T10:51:09.895Z,69.80
2022-11-24T10:52:09.858Z,70.04
2022-11-24T10:53:09.882Z,68.91
2022-11-24T10:54:09.856Z,69.58
2022-11-24T10:55:09.857Z,69.53
2022-11-24T10:56:09.833Z,69.82
2022-11-24T10:57:09.817Z,69.93
2022-11-24T10:58:09.791Z,69.67
2022-11-24T10:59:09.837Z,70.53
2022-11-24T11:00:09.791Z,70.42
2022-11-24T11:01:09.897Z,70.18
2022-11-24T11:02:09.843Z,69.35
2022-11-24T11:03:09.874Z,69.44
2022-11-24T11:04:09.771Z,69.46
2022-11-24T11:05:09.776Z,69.00
2022-11-24T11:06:09.722Z,68.57
2022-11-24T11:07:09.792Z,68.65
2022-11-24T11:08:09.732Z,68.12
2022-11-24T11:09:09.702Z,67.45
2022-11-24T11:10:09.657Z,68.23
2022-11-24T11:11:09.656Z,67.68
2022-11-24T11:12:28.055Z,67.51
2022-11-24T11:13:10.641Z,67.54
2022-11-24T11:14:09.613Z,67.22
2022-11-24T11:15:09.648Z,67.60
2022-11-24T11:16:09.640Z,67.71
2022-11-24T11:17:09.591Z,67.41
2022-11-24T11:18:09.574Z,67.56
2022-11-24T11:19:33.262Z,67.41
2022-11-24T11:20:10.566Z,67.97
2022-11-24T11:21:09.552Z,67.39
2022-11-24T11:22:09.512Z,67.31
2022-11-24T11:23:09.590Z,67.61
2022-11-24T11:24:09.523Z,67.82
2022-11-24T11:25:09.524Z,66.99
2022-11-24T11:26:09.476Z,67.22
2022-11-24T11:27:09.494Z,67.38
2022-11-24T11:28:13.678Z,67.54
2022-11-24T11:31:16.545Z,65.91
2022-11-24T11:34:18.191Z,67.65
2022-11-24T11:35:10.385Z,67.18
2022-11-24T11:36:09.379Z,67.51
2022-11-24T11:37:09.370Z,66.98
2022-11-24T11:38:09.340Z,67.57
2022-11-24T11:39:09.336Z,67.01
2022-11-24T11:40:09.312Z,67.12
2022-11-24T11:41:09.312Z,66.17
2022-11-24T11:42:09.303Z,65.75
2022-11-24T11:43:09.309Z,65.58
2022-11-24T11:44:09.295Z,66.85
2022-11-24T11:45:09.305Z,66.99
2022-11-24T11:46:09.336Z,66.42
2022-11-24T11:47:09.304Z,66.68
2022-11-24T11:48:09.250Z,66.74
2022-11-24T11:49:09.240Z,66.76
2022-11-24T11:50:09.202Z,66.94
2022-11-24T11:51:23.247Z,66.85
2022-11-24T11:52:10.187Z,66.75
2022-11-24T11:53:09.185Z,66.75
2022-11-24T11:54:09.166Z,66.79
2022-11-24T11:55:09.173Z,66.83
2022-11-24T11:56:09.145Z,65.84
2022-11-24T11:57:09.148Z,66.59
2022-11-24T11:58:09.106Z,66.55
2022-11-24T11:59:09.100Z,66.96
2022-11-24T12:00:09.085Z,66.14
2022-11-24T12:01:09.077Z,65.52
2022-11-24T12:02:09.188Z,67.09
2022-11-24T12:03:09.145Z,67.30
2022-11-24T12:04:09.163Z,66.46
2022-11-24T12:05:09.058Z,66.01
2022-11-24T12:06:09.005Z,66.67
2022-11-24T12:07:09.037Z,66.10
2022-11-24T12:08:10.907Z,66.14
2022-11-24T12:09:24.225Z,66.24
2022-11-24T12:10:09.977Z,66.26
2022-11-24T12:11:08.960Z,66.10
2022-11-24T12:12:08.956Z,65.85
2022-11-24T12:13:08.970Z,65.92
2022-11-24T12:14:08.923Z,66.19
2022-11-24T12:15:11.044Z,66.22
2022-11-24T12:16:09.005Z,66.48
2022-11-24T12:17:08.897Z,66.74
2022-11-24T12:18:26.741Z,66.30
2022-11-24T12:19:09.878Z,67.02
2022-11-24T12:20:08.852Z,66.69
2022-11-24T12:21:08.871Z,66.65
2022-11-24T12:22:08.821Z,66.68
2022-11-24T12:23:08.838Z,66.14
2022-11-24T12:24:08.820Z,66.02
2022-11-24T12:25:08.802Z,66.37
2022-11-24T12:26:08.768Z,66.09
2022-11-24T12:27:08.787Z,65.58
2022-11-24T12:28:08.768Z,66.59
2022-11-24T12:29:08.764Z,67.45
2022-11-24T12:30:08.721Z,67.01
2022-11-24T12:31:08.818Z,67.16
2022-11-24T12:32:08.708Z,66.65
2022-11-24T12:33:08.718Z,66.15
2022-11-24T12:34:08.687Z,66.00
2022-11-24T12:35:08.702Z,66.80
2022-11-24T12:36:08.680Z,66.81
2022-11-24T12:37:08.661Z,66.46
2022-11-24T12:38:08.632Z,66.21
2022-11-24T12:39:08.641Z,67.04
2022-11-24T12:40:08.612Z,67.01
2022-11-24T12:42:09.599Z,66.29
2022-11-24T12:43:08.604Z,65.94
2022-11-24T12:44:08.570Z,66.19
2022-11-24T12:45:08.574Z,66.81
2022-11-24T12:46:12.529Z,66.35
2022-11-24T12:47:09.613Z,66.19
2022-11-24T12:48:08.521Z,66.27
2022-11-24T12:49:08.525Z,66.09
2022-11-24T12:50:08.512Z,65.69
2022-11-24T12:51:08.511Z,65.66
2022-11-24T12:52:08.507Z,65.39
2022-11-24T12:53:08.474Z,65.67
2022-11-24T12:54:08.471Z,65.70
2022-11-24T12:55:08.477Z,65.30
2022-11-24T12:56:08.491Z,66.01
2022-11-24T12:57:08.458Z,65.72